Time;durP1;ratioP1;P1;durP2;ratioP2;P2;SDS_P1;SDS_P2;PMS_P1;PMS_P2;Temp;Humidity;BMP_temperature;BMP_pressure;BME280_temperature;BME280_humidity;BME280_pressure;Samples;Min_cycle;Max_cycle;Signal;HPM_P1;HPM_P2
2022/02/14 00:01:20;;;;;;;5.07;2.60;;;9.70;99.90;;;;;;5049115;28;20456;-81
2022/02/14 00:03:47;;;;;;;5.53;2.30;;;9.70;99.90;;;;;;5045295;28;20451;-81
2022/02/14 00:06:15;;;;;;;5.20;2.30;;;9.80;99.90;;;;;;5040193;28;20850;-82
2022/02/14 00:08:44;;;;;;;5.17;2.60;;;9.80;99.90;;;;;;5040352;28;20446;-81
2022/02/14 00:11:11;;;;;;;4.50;2.00;;;9.80;99.90;;;;;;5039794;28;20464;-82
2022/02/14 00:13:38;;;;;;;5.13;2.10;;;9.70;99.90;;;;;;5039324;28;20587;-81
2022/02/14 00:16:05;;;;;;;4.37;2.47;;;9.80;99.90;;;;;;5036044;28;20484;-83
2022/02/14 00:18:32;;;;;;;10.80;2.70;;;9.80;99.90;;;;;;5039986;28;20487;-80
2022/02/14 00:20:59;;;;;;;4.63;2.43;;;9.80;99.90;;;;;;5039558;28;20459;-82
2022/02/14 00:23:27;;;;;;;7.87;3.00;;;9.80;99.90;;;;;;5039692;28;20567;-82
2022/02/14 00:25:54;;;;;;;7.83;2.60;;;9.70;99.90;;;;;;5039171;28;20572;-82
2022/02/14 00:28:20;;;;;;;8.90;2.67;;;9.70;99.90;;;;;;5039079;28;21000;-81
2022/02/14 00:30:47;;;;;;;5.00;2.37;;;9.70;99.90;;;;;;5038500;28;20462;-81
2022/02/14 00:33:14;;;;;;;6.03;2.00;;;9.60;99.90;;;;;;5036917;28;20490;-82
2022/02/14 00:35:41;;;;;;;4.90;2.20;;;9.70;99.90;;;;;;5030496;28;20472;-81
2022/02/14 00:38:07;;;;;;;4.60;2.00;;;9.60;99.90;;;;;;5035299;28;20446;-81
2022/02/14 00:40:36;;;;;;;4.90;2.70;;;9.60;99.90;;;;;;5039334;28;20452;-82
2022/02/14 00:43:04;;;;;;;3.67;2.10;;;9.60;99.90;;;;;;5037801;28;20505;-81
2022/02/14 00:45:31;;;;;;;5.30;2.40;;;9.50;99.90;;;;;;5038126;28;20484;-81
2022/02/14 00:47:57;;;;;;;6.93;3.33;;;9.50;99.90;;;;;;5038323;28;20446;-81
2022/02/14 00:50:25;;;;;;;3.50;1.90;;;9.50;99.90;;;;;;5038050;28;20455;-81
2022/02/14 00:52:52;;;;;;;5.20;2.47;;;9.50;99.90;;;;;;5033677;28;20485;-80
2022/02/14 00:55:19;;;;;;;6.23;2.00;;;9.50;99.90;;;;;;5038317;28;20471;-82
2022/02/14 00:57:49;;;;;;;6.93;2.57;;;9.50;99.90;;;;;;5039827;28;20463;-81
2022/02/14 01:00:17;;;;;;;4.73;2.27;;;9.50;99.90;;;;;;5038207;28;20462;-82
2022/02/14 01:02:45;;;;;;;7.83;2.60;;;9.50;99.90;;;;;;5037710;28;20489;-81
2022/02/14 01:05:12;;;;;;;6.57;2.53;;;9.60;99.90;;;;;;5037185;28;20469;-81
2022/02/14 01:07:39;;;;;;;6.40;3.27;;;9.60;99.90;;;;;;5033824;28;20838;-82
2022/02/14 01:10:08;;;;;;;4.83;2.50;;;9.50;99.90;;;;;;5025575;28;20493;-81
2022/02/14 01:12:35;;;;;;;7.30;2.23;;;9.50;99.90;;;;;;5038356;28;20494;-81
2022/02/14 01:15:05;;;;;;;4.47;2.37;;;9.50;99.90;;;;;;5035608;28;20467;-81
2022/02/14 01:17:33;;;;;;;5.50;2.37;;;9.50;99.90;;;;;;5038030;28;20458;-81
2022/02/14 01:20:00;;;;;;;6.03;2.67;;;9.40;99.90;;;;;;5037116;28;20954;-81
2022/02/14 01:22:27;;;;;;;7.20;2.20;;;9.40;99.90;;;;;;5036414;28;20449;-81
2022/02/14 01:24:54;;;;;;;4.70;1.93;;;9.40;99.90;;;;;;5033511;28;20509;-81
2022/02/14 01:27:21;;;;;;;6.47;2.10;;;9.30;99.90;;;;;;5037250;28;20531;-81
2022/02/14 01:29:47;;;;;;;6.83;2.80;;;9.40;99.90;;;;;;5036920;28;20460;-81
2022/02/14 01:32:17;;;;;;;4.50;2.70;;;9.40;99.90;;;;;;5036791;28;20463;-81
2022/02/14 01:34:44;;;;;;;8.00;2.50;;;9.40;99.90;;;;;;5036404;28;20462;-83
2022/02/14 01:37:11;;;;;;;4.60;2.17;;;9.30;99.90;;;;;;5037523;28;20505;-82
2022/02/14 01:39:38;;;;;;;7.40;2.33;;;9.20;99.90;;;;;;5036461;28;20470;-83
2022/02/14 01:42:05;;;;;;;8.57;2.83;;;9.20;99.90;;;;;;5036689;28;20839;-82
2022/02/14 01:44:36;;;;;;;5.63;2.67;;;9.10;99.90;;;;;;5035950;28;20458;-82
2022/02/14 01:47:03;;;;;;;7.93;3.10;;;9.00;99.90;;;;;;5037391;28;20468;-82
2022/02/14 01:49:32;;;;;;;9.40;2.47;;;9.00;99.90;;;;;;5044688;28;20533;-82
2022/02/14 01:51:58;;;;;;;8.70;2.60;;;9.10;99.90;;;;;;5037634;28;20446;-81
2022/02/14 01:54:25;;;;;;;4.67;2.37;;;9.10;99.90;;;;;;5036315;28;20486;-80
2022/02/14 01:56:52;;;;;;;5.60;1.83;;;9.10;99.90;;;;;;5038038;28;20460;-82
2022/02/14 01:59:19;;;;;;;5.67;2.90;;;9.00;99.90;;;;;;5036721;28;20542;-81
2022/02/14 02:01:46;;;;;;;6.10;2.50;;;9.00;99.90;;;;;;5037862;28;20461;-81
2022/02/14 02:04:13;;;;;;;8.60;2.80;;;8.90;99.90;;;;;;5036428;28;20470;-82
2022/02/14 02:06:43;;;;;;;5.87;2.17;;;9.00;99.90;;;;;;5032732;28;20930;-82
2022/02/14 02:09:10;;;;;;;6.10;2.37;;;9.00;99.90;;;;;;5035414;28;20453;-81
2022/02/14 02:14:22;;;;;;;9.23;2.47;;;9.00;99.90;;;;;;5036179;28;20529;-82
2022/02/14 02:16:49;;;;;;;11.90;2.43;;;9.00;99.90;;;;;;5036949;28;20900;-81
2022/02/14 02:19:15;;;;;;;7.20;3.47;;;8.90;99.90;;;;;;5037188;28;20460;-81
2022/02/14 02:21:46;;;;;;;8.90;2.57;;;8.90;99.90;;;;;;5037173;28;20458;-82
2022/02/14 02:24:17;;;;;;;4.70;2.50;;;8.90;99.90;;;;;;5037672;28;20939;-82
2022/02/14 02:26:46;;;;;;;7.43;2.10;;;8.90;99.90;;;;;;5041623;28;20823;-82
2022/02/14 02:29:14;;;;;;;5.47;2.17;;;8.90;99.90;;;;;;5041776;28;20488;-82
2022/02/14 02:31:42;;;;;;;6.70;3.00;;;8.90;99.90;;;;;;5042124;28;20456;-82
2022/02/14 02:34:09;;;;;;;4.93;2.27;;;8.90;99.90;;;;;;5040491;28;20904;-82
2022/02/14 02:36:47;;;;;;;4.07;1.80;;;9.00;99.90;;;;;;5039866;28;20563;-82
2022/02/14 02:39:14;;;;;;;4.60;2.20;;;9.00;99.90;;;;;;5041204;28;20451;-82
2022/02/14 02:41:41;;;;;;;7.90;1.97;;;8.90;99.90;;;;;;5041275;28;20457;-82
2022/02/14 02:44:09;;;;;;;8.70;2.77;;;8.90;99.90;;;;;;5040409;28;20445;-82
2022/02/14 02:46:36;;;;;;;5.03;2.60;;;8.80;99.90;;;;;;5025690;28;20864;-82
2022/02/14 02:49:10;;;;;;;6.57;2.17;;;8.90;99.90;;;;;;5041752;28;20548;-82
2022/02/14 02:51:38;;;;;;;9.17;2.33;;;8.90;99.90;;;;;;5041571;28;20447;-82
2022/02/14 02:54:05;;;;;;;7.40;2.30;;;9.00;99.90;;;;;;5040079;28;20540;-82
2022/02/14 02:56:32;;;;;;;7.00;2.77;;;9.00;99.90;;;;;;5041027;28;20467;-82
2022/02/14 02:58:59;;;;;;;8.57;3.00;;;9.10;99.90;;;;;;5035642;28;20462;-83
2022/02/14 03:01:27;;;;;;;6.00;3.00;;;9.10;99.90;;;;;;5021535;28;20540;-83
2022/02/14 03:03:54;;;;;;;5.87;2.03;;;9.00;99.90;;;;;;5038553;28;20961;-82
2022/02/14 03:06:21;;;;;;;8.67;3.00;;;8.90;99.90;;;;;;5040751;28;20494;-83
2022/02/14 03:08:49;;;;;;;6.17;1.77;;;8.70;99.90;;;;;;5040684;28;20454;-82
2022/02/14 03:11:16;;;;;;;6.80;2.00;;;8.80;99.90;;;;;;5040492;28;20454;-83
2022/02/14 03:13:43;;;;;;;6.37;2.40;;;8.90;99.90;;;;;;5040136;28;20494;-82
2022/02/14 03:16:10;;;;;;;8.43;2.10;;;8.90;99.90;;;;;;5040361;28;20572;-82
2022/02/14 03:18:38;;;;;;;6.20;2.00;;;8.90;99.90;;;;;;5041038;28;20468;-82
2022/02/14 03:21:05;;;;;;;3.30;1.93;;;8.80;99.90;;;;;;5040824;28;20451;-82
2022/02/14 03:23:33;;;;;;;6.60;2.50;;;8.90;99.90;;;;;;5040006;28;20450;-81
2022/02/14 03:26:00;;;;;;;4.07;1.60;;;8.90;99.90;;;;;;5040344;28;20480;-81
2022/02/14 03:28:27;;;;;;;6.50;2.63;;;8.90;99.90;;;;;;5040436;28;20450;-82
2022/02/14 03:30:54;;;;;;;5.77;2.47;;;8.80;99.90;;;;;;5040521;28;20457;-82
2022/02/14 03:33:22;;;;;;;4.37;2.03;;;8.80;99.90;;;;;;5021298;28;20493;-82
2022/02/14 03:35:50;;;;;;;4.97;2.07;;;8.80;99.90;;;;;;5020385;28;20555;-83
2022/02/14 03:38:16;;;;;;;4.93;2.33;;;8.80;99.90;;;;;;5039897;28;20457;-81
2022/02/14 03:40:44;;;;;;;3.90;2.20;;;8.70;99.90;;;;;;5040264;28;20445;-81
2022/02/14 03:43:11;;;;;;;4.90;2.60;;;8.70;99.90;;;;;;5039518;28;20454;-82
2022/02/14 03:45:39;;;;;;;5.73;2.50;;;8.70;99.90;;;;;;5039740;28;20466;-82
2022/02/14 03:48:07;;;;;;;4.10;2.00;;;8.60;99.90;;;;;;5041489;28;20461;-81
2022/02/14 03:50:34;;;;;;;4.97;2.20;;;8.60;99.90;;;;;;5039996;28;20518;-82
2022/02/14 03:53:03;;;;;;;5.03;2.10;;;8.60;99.90;;;;;;5040374;28;20858;-82
2022/02/14 03:55:29;;;;;;;5.83;2.30;;;8.60;99.90;;;;;;5039567;28;20492;-81
2022/02/14 03:57:56;;;;;;;4.90;1.63;;;8.60;99.90;;;;;;5040039;28;20463;-81
2022/02/14 04:00:24;;;;;;;6.37;2.63;;;8.60;99.90;;;;;;5039831;28;20987;-81
2022/02/14 04:02:51;;;;;;;5.20;1.70;;;8.60;99.90;;;;;;5040466;28;20897;-80
2022/02/14 04:05:20;;;;;;;5.00;1.80;;;8.50;99.90;;;;;;5039603;28;20522;-82
2022/02/14 04:07:47;;;;;;;4.40;2.10;;;8.50;99.90;;;;;;5039870;28;20461;-81
2022/02/14 04:10:16;;;;;;;5.00;2.10;;;8.60;99.90;;;;;;5039840;28;20634;-81
2022/02/14 04:12:43;;;;;;;6.30;1.80;;;8.70;99.90;;;;;;5039666;28;20443;-82
2022/02/14 04:15:11;;;;;;;4.40;2.10;;;8.70;99.90;;;;;;5038446;28;20530;-82
2022/02/14 04:17:38;;;;;;;6.27;1.80;;;8.80;99.90;;;;;;5020157;28;20458;-82
2022/02/14 04:20:06;;;;;;;5.77;1.97;;;8.90;99.90;;;;;;5024166;28;20454;-81
2022/02/14 04:22:33;;;;;;;6.97;1.50;;;9.00;99.90;;;;;;5041044;28;20455;-81
2022/02/14 04:25:00;;;;;;;4.67;2.17;;;9.10;99.90;;;;;;5039040;28;20478;-82
2022/02/14 04:27:28;;;;;;;4.23;2.03;;;9.10;99.90;;;;;;5039561;28;20538;-81
2022/02/14 04:29:55;;;;;;;4.20;1.87;;;9.30;99.90;;;;;;5040119;28;20505;-81
2022/02/14 04:32:21;;;;;;;3.53;1.63;;;9.50;99.90;;;;;;5038651;28;20450;-82
2022/02/14 04:34:48;;;;;;;4.00;2.07;;;9.60;99.90;;;;;;5038791;28;20525;-83
2022/02/14 04:37:15;;;;;;;5.80;1.80;;;9.70;99.90;;;;;;5039478;28;20463;-83
2022/02/14 04:39:43;;;;;;;3.03;1.83;;;9.90;99.90;;;;;;5040348;28;20467;-83
2022/02/14 04:42:09;;;;;;;5.53;2.00;;;10.00;99.90;;;;;;5039997;28;20459;-82
2022/02/14 04:44:38;;;;;;;5.03;2.13;;;10.00;99.90;;;;;;5038626;28;20455;-83
2022/02/14 04:47:04;;;;;;;9.83;2.27;;;10.10;99.90;;;;;;5039312;28;20455;-83
2022/02/14 04:49:31;;;;;;;4.53;1.57;;;10.20;99.90;;;;;;5037910;28;20483;-83
2022/02/14 04:51:58;;;;;;;3.73;1.50;;;10.30;99.90;;;;;;5038680;28;20827;-82
2022/02/14 04:54:25;;;;;;;5.43;1.63;;;10.30;99.90;;;;;;5039189;28;20484;-83
2022/02/14 04:56:52;;;;;;;3.70;1.57;;;10.40;99.90;;;;;;5034023;28;20462;-83
2022/02/14 04:59:19;;;;;;;5.33;1.90;;;10.40;99.90;;;;;;5039544;28;20456;-83
2022/02/14 05:01:47;;;;;;;5.17;1.80;;;10.30;99.90;;;;;;5039064;28;20511;-83
2022/02/14 05:04:14;;;;;;;5.80;1.57;;;10.30;99.90;;;;;;5038624;28;20455;-83
2022/02/14 05:06:41;;;;;;;5.93;1.90;;;10.30;99.90;;;;;;5041678;28;20475;-81
2022/02/14 05:09:08;;;;;;;4.10;1.57;;;10.30;99.90;;;;;;5047463;28;20460;-79
2022/02/14 05:11:35;;;;;;;3.37;2.10;;;10.30;99.90;;;;;;5043034;28;20468;-83
2022/02/14 05:14:02;;;;;;;4.03;1.50;;;10.40;99.90;;;;;;5042186;28;20491;-83
2022/02/14 05:16:29;;;;;;;5.17;1.97;;;10.50;99.90;;;;;;5041598;28;20478;-81
2022/02/14 05:18:58;;;;;;;3.63;1.70;;;10.60;99.90;;;;;;5040586;28;20460;-81
2022/02/14 05:21:24;;;;;;;5.20;2.00;;;10.50;99.90;;;;;;5037821;28;20458;-83
2022/02/14 05:23:52;;;;;;;6.63;1.70;;;10.40;99.90;;;;;;5040472;28;20448;-81
2022/02/14 05:26:19;;;;;;;2.80;1.70;;;10.40;99.90;;;;;;5041086;28;20482;-82
2022/02/14 05:28:46;;;;;;;5.80;1.93;;;10.30;99.90;;;;;;5041265;28;20455;-81
2022/02/14 05:31:12;;;;;;;5.63;1.70;;;10.30;99.90;;;;;;5040148;28;20451;-81
2022/02/14 05:33:39;;;;;;;4.90;1.70;;;10.20;99.90;;;;;;5040095;28;20446;-82
2022/02/14 05:36:07;;;;;;;5.60;1.50;;;10.20;99.90;;;;;;5039657;28;20473;-82
2022/02/14 05:38:34;;;;;;;3.20;1.43;;;10.20;99.90;;;;;;5020111;28;20460;-81
2022/02/14 05:41:01;;;;;;;3.50;1.50;;;10.20;99.90;;;;;;5019558;28;20450;-82
2022/02/14 05:43:28;;;;;;;3.53;1.50;;;10.30;99.90;;;;;;5019147;28;21367;-81
2022/02/14 05:45:54;;;;;;;3.57;1.50;;;10.20;99.90;;;;;;5020014;28;20471;-82
2022/02/14 05:48:26;;;;;;;9.30;1.87;;;10.20;99.90;;;;;;5019876;28;20465;-81
2022/02/14 05:50:53;;;;;;;5.73;2.53;;;10.20;99.90;;;;;;5019785;28;20452;-82
2022/02/14 05:53:21;;;;;;;4.23;1.73;;;10.20;99.90;;;;;;5026871;28;20526;-82
2022/02/14 05:55:48;;;;;;;3.23;1.67;;;10.20;99.90;;;;;;5039603;28;20497;-81
2022/02/14 05:58:15;;;;;;;3.90;2.33;;;10.20;99.90;;;;;;5039872;28;20452;-83
2022/02/14 06:00:41;;;;;;;3.93;2.13;;;10.20;99.90;;;;;;5039832;28;20473;-83
2022/02/14 06:03:08;;;;;;;4.70;2.00;;;10.20;99.90;;;;;;5059684;28;20451;-81
2022/02/14 06:05:35;;;;;;;5.37;1.87;;;10.20;99.90;;;;;;5048595;28;20471;-82
2022/02/14 06:08:02;;;;;;;4.60;1.80;;;10.20;99.90;;;;;;5039605;28;20480;-81
2022/02/14 06:10:30;;;;;;;2.80;1.60;;;10.10;99.90;;;;;;5023316;28;20465;-82
2022/02/14 06:12:57;;;;;;;3.30;1.60;;;10.10;99.90;;;;;;5032890;28;20456;-81
2022/02/14 06:15:24;;;;;;;3.80;1.70;;;10.10;99.90;;;;;;5022718;28;20496;-81
2022/02/14 06:17:52;;;;;;;4.50;1.93;;;10.10;99.90;;;;;;5016849;28;20924;-80
2022/02/14 06:20:19;;;;;;;3.50;1.57;;;10.20;99.90;;;;;;5017257;28;21022;-81
2022/02/14 06:22:45;;;;;;;3.33;1.73;;;10.10;99.90;;;;;;5028864;28;20512;-82
2022/02/14 06:25:12;;;;;;;3.27;1.10;;;10.10;99.90;;;;;;5044062;28;20485;-81
2022/02/14 06:27:41;;;;;;;2.93;1.47;;;10.00;99.90;;;;;;5038549;28;20558;-83
2022/02/14 06:30:09;;;;;;;3.57;1.70;;;10.10;99.90;;;;;;5029731;28;20459;-81
2022/02/14 06:32:36;;;;;;;2.47;1.47;;;10.10;99.90;;;;;;5042167;28;20462;-81
2022/02/14 06:35:04;;;;;;;4.80;2.17;;;10.10;99.90;;;;;;5055842;28;20582;-81
2022/02/14 06:37:31;;;;;;;2.97;1.60;;;10.10;99.90;;;;;;5055922;28;20450;-83
2022/02/14 06:39:57;;;;;;;5.87;2.00;;;10.00;99.90;;;;;;5055928;28;20461;-82
2022/02/14 06:42:24;;;;;;;5.70;1.77;;;10.00;99.90;;;;;;5029913;28;20460;-82
2022/02/14 06:44:52;;;;;;;3.73;1.80;;;10.00;99.90;;;;;;5024813;28;20839;-83
2022/02/14 06:47:19;;;;;;;3.57;1.50;;;10.10;99.90;;;;;;5043437;28;21005;-82
2022/02/14 06:49:46;;;;;;;5.33;1.53;;;10.00;99.90;;;;;;5058266;28;20470;-79
2022/02/14 06:52:13;;;;;;;3.27;1.50;;;10.00;99.90;;;;;;5050126;28;20459;-82
2022/02/14 06:54:39;;;;;;;3.80;1.43;;;10.00;99.90;;;;;;5035209;28;20494;-82
2022/02/14 06:57:06;;;;;;;4.77;1.87;;;9.90;99.90;;;;;;5035164;28;20447;-82
2022/02/14 06:59:33;;;;;;;5.20;1.57;;;9.90;99.90;;;;;;5015878;28;20451;-83
2022/02/14 07:02:32;;;;;;;3.87;1.57;;;9.90;99.90;;;;;;5030846;28;20497;-83
2022/02/14 07:05:00;;;;;;;3.57;1.67;;;9.90;99.90;;;;;;5032966;28;20476;-84
2022/02/14 07:07:27;;;;;;;3.13;1.70;;;9.90;99.90;;;;;;5033471;28;20480;-84
2022/02/14 07:09:54;;;;;;;3.70;1.77;;;9.90;99.90;;;;;;5033214;28;20806;-81
2022/02/14 07:12:21;;;;;;;4.80;1.50;;;9.90;99.90;;;;;;5026320;28;21192;-82
2022/02/14 07:14:47;;;;;;;4.80;1.73;;;9.90;99.90;;;;;;5035607;28;20499;-83
2022/02/14 07:17:14;;;;;;;3.30;1.37;;;10.00;99.90;;;;;;5035938;28;20853;-85
2022/02/14 07:19:41;;;;;;;4.27;1.73;;;10.00;99.90;;;;;;5040144;28;20962;-83
2022/02/14 07:22:09;;;;;;;2.63;1.43;;;10.10;99.90;;;;;;5037953;28;20455;-83
2022/02/14 07:24:36;;;;;;;5.07;2.13;;;10.20;99.90;;;;;;5039618;28;20526;-84
2022/02/14 07:27:03;;;;;;;3.07;1.60;;;10.20;99.90;;;;;;5039349;28;20462;-84
2022/02/14 07:29:30;;;;;;;6.93;1.83;;;10.30;99.90;;;;;;5036698;28;20462;-83
2022/02/14 07:31:57;;;;;;;3.17;1.63;;;10.40;99.90;;;;;;5037218;28;20483;-81
2022/02/14 07:34:24;;;;;;;2.50;1.30;;;10.50;99.90;;;;;;5035987;28;20506;-82
2022/02/14 07:36:51;;;;;;;3.90;1.73;;;10.60;99.90;;;;;;5033514;28;20477;-81
2022/02/14 07:39:19;;;;;;;4.13;1.77;;;10.60;99.90;;;;;;5032363;28;20530;-82
2022/02/14 07:41:46;;;;;;;6.90;1.77;;;10.70;99.90;;;;;;5032747;28;20451;-82
2022/02/14 07:44:13;;;;;;;4.13;1.50;;;10.70;99.90;;;;;;5036332;28;20479;-84
2022/02/14 07:46:40;;;;;;;3.50;1.27;;;10.70;99.90;;;;;;5033543;28;20472;-81
2022/02/14 07:49:07;;;;;;;4.30;1.60;;;10.80;99.90;;;;;;5042791;28;20486;-81
2022/02/14 07:51:34;;;;;;;4.40;1.73;;;10.80;99.90;;;;;;5048577;28;20569;-82
2022/02/14 07:54:00;;;;;;;3.60;1.20;;;10.80;99.90;;;;;;5037811;28;20459;-82
2022/02/14 07:56:29;;;;;;;2.43;1.37;;;10.80;99.90;;;;;;5047685;28;20495;-82
2022/02/14 07:58:58;;;;;;;2.40;1.40;;;10.80;99.90;;;;;;5044083;28;20993;-81
2022/02/14 08:01:25;;;;;;;8.00;1.70;;;10.80;99.90;;;;;;5037238;28;20515;-83
2022/02/14 08:03:51;;;;;;;3.07;1.47;;;10.80;99.90;;;;;;5031173;28;20462;-82
2022/02/14 08:06:18;;;;;;;6.80;1.97;;;10.80;99.90;;;;;;5031573;28;20460;-82
2022/02/14 08:08:45;;;;;;;4.13;1.63;;;10.90;99.90;;;;;;5027834;28;20445;-82
2022/02/14 08:11:12;;;;;;;5.93;1.73;;;10.90;99.90;;;;;;5031777;28;20464;-83
2022/02/14 08:13:49;;;;;;;2.47;1.47;;;10.90;99.90;;;;;;5031496;28;20463;-82
2022/02/14 08:16:19;;;;;;;3.23;1.80;;;10.90;99.90;;;;;;5028692;28;20491;-83
2022/02/14 08:18:46;;;;;;;7.27;1.67;;;10.80;99.90;;;;;;5030553;28;20456;-82
2022/02/14 08:21:13;;;;;;;5.27;1.67;;;10.80;99.90;;;;;;5028140;28;20452;-82
2022/02/14 08:23:39;;;;;;;6.63;1.87;;;10.80;99.90;;;;;;5032872;28;20575;-81
2022/02/14 08:26:06;;;;;;;2.90;1.40;;;10.80;99.90;;;;;;5038085;28;20482;-83
2022/02/14 08:28:34;;;;;;;4.90;1.50;;;10.80;99.90;;;;;;5038979;28;20460;-83
2022/02/14 08:31:02;;;;;;;3.07;1.60;;;10.90;99.90;;;;;;5037681;28;20451;-83
2022/02/14 08:33:30;;;;;;;4.03;1.23;;;10.90;99.90;;;;;;5037583;28;20451;-83
2022/02/14 08:35:58;;;;;;;3.07;1.20;;;11.00;99.90;;;;;;5038375;28;20503;-82
2022/02/14 08:38:25;;;;;;;2.50;1.20;;;11.00;99.90;;;;;;5031987;28;20463;-83
2022/02/14 08:40:51;;;;;;;4.20;1.97;;;11.00;99.90;;;;;;5019073;28;20972;-83
2022/02/14 08:43:18;;;;;;;3.07;1.30;;;11.10;99.90;;;;;;5031322;28;20469;-82
2022/02/14 08:45:47;;;;;;;3.27;1.80;;;11.20;99.90;;;;;;5035136;28;20578;-84
2022/02/14 08:48:15;;;;;;;3.50;1.70;;;11.20;99.90;;;;;;5031852;28;20459;-83
2022/02/14 08:50:42;;;;;;;4.23;1.60;;;11.20;99.90;;;;;;5033446;28;20459;-83
2022/02/14 08:53:11;;;;;;;4.47;1.50;;;11.40;99.90;;;;;;5030934;28;21950;-82
2022/02/14 08:55:41;;;;;;;4.60;1.60;;;11.40;99.90;;;;;;5033664;28;20492;-82
2022/02/14 08:58:25;;;;;;;3.73;1.40;;;11.50;99.90;;;;;;5032149;28;20460;-82
2022/02/14 09:00:52;;;;;;;2.67;1.40;;;11.60;99.90;;;;;;5031678;28;20451;-85
2022/02/14 09:03:20;;;;;;;2.97;1.43;;;11.60;99.90;;;;;;5035302;28;20456;-83
2022/02/14 09:05:47;;;;;;;4.00;1.53;;;11.50;99.90;;;;;;5030581;28;21033;-83
2022/02/14 09:08:16;;;;;;;3.83;1.47;;;11.50;99.90;;;;;;5030488;28;20452;-83
2022/02/14 09:10:43;;;;;;;4.00;1.40;;;11.60;99.90;;;;;;5032646;28;20571;-83
2022/02/14 09:13:10;;;;;;;2.87;1.50;;;11.60;99.90;;;;;;5036225;28;20919;-83
2022/02/14 09:15:37;;;;;;;2.77;1.23;;;11.60;99.90;;;;;;5036454;28;20493;-84
2022/02/14 09:18:04;;;;;;;4.00;1.30;;;11.60;99.90;;;;;;5033107;28;20506;-84
2022/02/14 09:20:32;;;;;;;4.77;1.77;;;11.60;99.90;;;;;;5026726;28;20556;-83
2022/02/14 09:23:00;;;;;;;6.07;1.90;;;11.60;99.90;;;;;;5038641;28;20484;-84
2022/02/14 09:25:27;;;;;;;2.87;1.60;;;11.60;99.90;;;;;;5031528;28;20502;-83
2022/02/14 09:27:54;;;;;;;2.87;1.30;;;11.70;99.90;;;;;;5022320;28;20448;-83
2022/02/14 09:30:21;;;;;;;6.50;2.17;;;11.60;99.90;;;;;;5025921;28;20476;-83
2022/02/14 09:32:52;;;;;;;5.10;1.80;;;11.60;99.90;;;;;;5034193;28;20456;-84
2022/02/14 09:35:27;;;;;;;5.30;1.30;;;11.70;99.90;;;;;;5024638;28;21018;-83
2022/02/14 09:38:08;;;;;;;3.20;1.70;;;11.70;99.90;;;;;;5030503;28;20487;-82
2022/02/14 09:40:38;;;;;;;3.43;1.50;;;11.70;99.90;;;;;;5029293;28;20461;-85
2022/02/14 09:43:15;;;;;;;2.40;1.37;;;11.80;99.90;;;;;;5029291;28;20455;-84
2022/02/14 09:45:56;;;;;;;3.10;1.47;;;11.80;99.90;;;;;;5030609;28;20472;-82
2022/02/14 09:48:26;;;;;;;6.83;1.40;;;11.80;99.90;;;;;;5017513;28;21055;-85
2022/02/14 09:50:54;;;;;;;4.60;1.60;;;11.60;99.90;;;;;;5026685;28;20458;-83
2022/02/14 09:53:28;;;;;;;3.07;1.37;;;11.70;99.90;;;;;;5028254;28;20496;-86
2022/02/14 09:56:02;;;;;;;5.80;1.70;;;11.80;99.90;;;;;;5038265;28;20560;-82
2022/02/14 09:58:32;;;;;;;2.67;1.30;;;11.80;99.90;;;;;;5036843;28;20451;-83
2022/02/14 10:01:03;;;;;;;5.00;1.80;;;11.90;99.90;;;;;;5031242;28;20453;-84
2022/02/14 10:03:48;;;;;;;3.70;1.43;;;11.90;99.90;;;;;;5027503;28;20465;-82
2022/02/14 10:06:32;;;;;;;3.27;1.33;;;11.90;99.90;;;;;;5034999;28;20480;-84
2022/02/14 10:09:27;;;;;;;3.00;1.37;;;11.90;99.90;;;;;;5020119;28;20459;-83
2022/02/14 10:12:06;;;;;;;2.87;1.40;;;11.80;99.90;;;;;;5033115;28;20464;-83
2022/02/14 10:14:37;;;;;;;3.10;1.80;;;11.80;99.90;;;;;;5033142;28;20487;-83
2022/02/14 10:17:14;;;;;;;2.90;1.37;;;11.90;99.90;;;;;;5032226;28;20490;-84
2022/02/14 10:20:03;;;;;;;3.00;1.40;;;11.80;99.90;;;;;;5028331;28;20468;-83
2022/02/14 10:22:51;;;;;;;2.70;1.30;;;11.80;99.90;;;;;;5033227;28;20518;-84
2022/02/14 10:25:34;;;;;;;3.97;1.40;;;11.80;99.90;;;;;;5027440;28;20839;-83
2022/02/14 10:31:07;;;;;;;4.50;2.03;;;11.80;99.90;;;;;;5032099;28;21187;-83
2022/02/14 10:33:52;;;;;;;3.03;1.47;;;11.80;99.90;;;;;;5032710;28;20462;-83
2022/02/14 10:36:32;;;;;;;3.00;1.10;;;11.90;99.90;;;;;;5034461;28;20575;-81
2022/02/14 10:39:13;;;;;;;3.60;1.57;;;12.00;99.90;;;;;;5036084;28;20873;-82
2022/02/14 10:41:43;;;;;;;2.83;0.90;;;12.10;99.90;;;;;;5052367;28;20465;-83
2022/02/14 10:44:12;;;;;;;4.50;1.20;;;12.00;99.90;;;;;;5037387;28;20456;-82
2022/02/14 10:46:39;;;;;;;1.87;0.80;;;12.30;99.90;;;;;;5041277;28;20479;-81
2022/02/14 10:49:07;;;;;;;3.03;0.80;;;12.70;99.90;;;;;;5040782;28;21809;-81
2022/02/14 10:51:34;;;;;;;4.87;0.87;;;12.90;99.90;;;;;;5039210;28;20482;-83
2022/02/14 10:54:03;;;;;;;2.93;1.00;;;13.20;99.90;;;;;;5027964;28;20454;-82
2022/02/14 10:56:38;;;;;;;3.00;0.90;;;13.60;99.90;;;;;;5038773;28;20522;-82
2022/02/14 10:59:19;;;;;;;2.37;0.80;;;13.60;99.90;;;;;;5038678;28;20890;-82
2022/02/14 11:01:46;;;;;;;2.63;0.83;;;13.50;99.90;;;;;;5039435;28;20457;-81
2022/02/14 11:04:13;;;;;;;4.53;0.90;;;13.50;99.90;;;;;;5025682;28;20540;-81
2022/02/14 11:06:41;;;;;;;3.43;1.20;;;13.70;99.90;;;;;;5031300;28;20481;-85
2022/02/14 11:09:09;;;;;;;3.60;1.50;;;14.00;99.90;;;;;;5039064;28;20468;-79
2022/02/14 11:11:37;;;;;;;3.27;1.43;;;14.70;99.90;;;;;;5039370;28;20451;-80
2022/02/14 11:14:06;;;;;;;2.60;0.93;;;15.00;99.90;;;;;;5044359;28;20859;-82
2022/02/14 11:16:38;;;;;;;2.70;1.03;;;14.90;99.90;;;;;;5037365;28;20497;-82
2022/02/14 11:19:08;;;;;;;3.10;1.00;;;14.70;99.90;;;;;;5035106;28;20502;-83
2022/02/14 11:21:35;;;;;;;2.27;1.07;;;15.00;99.90;;;;;;5035611;28;20570;-80
2022/02/14 11:24:25;;;;;;;6.20;1.20;;;15.00;99.90;;;;;;5034516;28;20448;-80
2022/02/14 11:27:01;;;;;;;5.60;1.27;;;14.70;99.90;;;;;;5038997;28;20980;-82
2022/02/14 11:29:44;;;;;;;1.80;0.90;;;14.00;99.90;;;;;;5016571;28;20443;-82
2022/02/14 11:32:22;;;;;;;3.13;0.90;;;13.90;99.90;;;;;;5040482;28;21081;-80
2022/02/14 11:34:53;;;;;;;2.80;1.20;;;14.90;99.90;;;;;;5035533;28;20479;-82
2022/02/14 11:37:20;;;;;;;2.40;1.07;;;15.80;99.90;;;;;;5033384;28;20495;-80
2022/02/14 11:39:47;;;;;;;2.53;1.10;;;17.40;99.90;;;;;;5037637;28;20452;-83
2022/02/14 11:42:14;;;;;;;2.37;0.83;;;18.90;99.90;;;;;;5036242;28;20453;-84
2022/02/14 11:44:42;;;;;;;2.27;0.90;;;17.70;99.90;;;;;;5034467;28;21015;-82
2022/02/14 11:47:11;;;;;;;22.20;12.43;;;18.00;99.90;;;;;;5044459;28;20515;-81
2022/02/14 11:49:41;;;;;;;7.30;3.80;;;18.00;99.90;;;;;;5045425;28;20548;-83
2022/02/14 11:52:09;;;;;;;2.07;0.90;;;19.60;99.90;;;;;;5038520;28;20455;-81
2022/02/14 11:54:37;;;;;;;5.13;1.20;;;21.30;99.90;;;;;;5044723;28;20454;-81
2022/02/14 11:57:27;;;;;;;1.87;0.87;;;19.70;99.90;;;;;;5041012;28;20692;-83
2022/02/14 12:00:24;;;;;;;3.10;0.90;;;18.70;99.90;;;;;;5042629;28;20463;-82
2022/02/14 12:03:16;;;;;;;2.40;0.90;;;16.90;99.90;;;;;;5037933;28;20494;-82
2022/02/14 12:06:02;;;;;;;2.20;1.07;;;15.80;99.90;;;;;;5036420;28;20486;-82
2022/02/14 12:09:01;;;;;;;2.00;0.80;;;14.60;99.90;;;;;;5038793;28;20492;-82
2022/02/14 12:11:47;;;;;;;2.03;0.70;;;14.10;99.90;;;;;;5029608;28;20486;-83
2022/02/14 12:14:21;;;;;;;3.90;1.03;;;15.90;99.90;;;;;;5033322;28;20458;-83
2022/02/14 12:22:42;;;;;;;2.03;0.77;;;14.70;99.90;;;;;;5029302;28;20450;-84
2022/02/14 12:25:12;;;;;;;3.10;0.80;;;14.10;99.90;;;;;;5035488;28;20487;-84
2022/02/14 12:27:40;;;;;;;2.37;1.07;;;13.90;99.90;;;;;;5034110;28;20455;-84
2022/02/14 12:30:18;;;;;;;4.93;1.10;;;13.50;99.90;;;;;;5034087;28;20441;-83
2022/02/14 12:33:01;;;;;;;4.53;1.00;;;13.30;99.90;;;;;;5035384;28;20441;-82
2022/02/14 12:35:33;;;;;;;3.50;1.00;;;13.20;99.90;;;;;;5035152;28;20476;-83
2022/02/14 12:38:02;;;;;;;5.83;1.20;;;13.10;99.90;;;;;;5031140;28;20447;-83
2022/02/14 12:40:45;;;;;;;3.93;0.93;;;13.00;99.90;;;;;;5034673;28;20546;-83
2022/02/14 12:43:21;;;;;;;3.60;1.20;;;12.90;99.90;;;;;;5025411;28;20492;-83
2022/02/14 12:45:49;;;;;;;4.53;1.00;;;12.80;99.90;;;;;;5034123;28;20476;-82
2022/02/14 12:48:33;;;;;;;2.03;0.90;;;12.70;99.90;;;;;;5032473;28;20900;-82
2022/02/14 12:51:02;;;;;;;3.93;0.93;;;12.60;99.90;;;;;;5029829;28;20506;-85
2022/02/14 12:53:31;;;;;;;3.20;0.67;;;12.40;99.90;;;;;;5032772;28;20999;-83
2022/02/14 12:56:16;;;;;;;3.00;1.03;;;12.30;99.90;;;;;;5032580;28;21002;-83
2022/02/14 12:58:51;;;;;;;1.90;0.77;;;12.30;99.90;;;;;;5033728;28;20461;-83
2022/02/14 13:01:26;;;;;;;3.93;1.10;;;12.00;99.90;;;;;;5033954;28;20836;-82
2022/02/14 13:03:56;;;;;;;4.10;1.00;;;11.90;99.90;;;;;;5032069;28;20460;-82
2022/02/14 13:06:36;;;;;;;3.60;1.20;;;11.80;99.90;;;;;;5031367;28;20480;-82
2022/02/14 13:09:19;;;;;;;3.57;0.73;;;11.70;99.90;;;;;;5031475;28;20449;-82
2022/02/14 13:11:46;;;;;;;3.83;0.90;;;11.60;99.90;;;;;;5035000;28;20469;-83
2022/02/14 13:14:26;;;;;;;3.60;0.90;;;11.70;99.90;;;;;;5034064;28;20513;-83